Bradley Beach, New Jersey
Current Conditions -  °F | °C
As of 2:15 PM on Thursday 18 Dec 2014 (Local Time) from KBLM Reporting Station
Scattered Clouds Scattered Clouds  
Wind Chill: 33°   Ceiling: Unl
Heat Index: 41°   Visibility: 10mi
Dew Point: 21°   Wind: 15mph
Humidity: 45%   Direction: 300°WNW
Pressure: 29.96"   Gusts: 25mph
Location:  40.2°N, 74.01°W
Report Text: KBLM 181915Z AUTO 30013G22KT 10SM SCT041 05/M06 A2996 RMK AO1
Loading
Personal Weather Stations






























Interactive Weather Map New forecast layout! Learn more

10-Day Weather Forecast

Advertisements
Track Severe Weather on mobile